createdAt,value
2022-11-20T00:01:38.324Z,72.58
2022-11-20T00:04:06.549Z,71.79
2022-11-20T00:06:34.570Z,72.67
2022-11-20T00:09:02.927Z,72.96
2022-11-20T00:11:32.768Z,73.15
2022-11-20T00:14:03.178Z,73.27
2022-11-20T00:16:34.758Z,73.19
2022-11-20T00:19:02.876Z,73.21
2022-11-20T00:21:31.787Z,73.38
2022-11-20T00:24:00.302Z,73.19
2022-11-20T00:26:29.771Z,73.59
2022-11-20T00:29:00.510Z,73.91
2022-11-20T00:31:30.023Z,74.03
2022-11-20T00:33:58.857Z,74.53
2022-11-20T00:36:29.439Z,74.58
2022-11-20T00:38:59.912Z,74.88
2022-11-20T00:41:30.298Z,75.08
2022-11-20T00:43:59.078Z,74.75
2022-11-20T00:46:29.203Z,73.96
2022-11-20T00:48:58.295Z,72.96
2022-11-20T00:51:27.987Z,72.82
2022-11-20T00:53:58.282Z,73.55
2022-11-20T00:56:26.611Z,72.73
2022-11-20T00:58:55.569Z,71.55
2022-11-20T01:01:26.615Z,72.36
2022-11-20T01:03:58.337Z,72.15
2022-11-20T01:06:28.100Z,71.50
2022-11-20T01:08:59.557Z,71.44
2022-11-20T01:11:36.317Z,71.65
2022-11-20T01:14:08.048Z,71.36
2022-11-20T01:16:38.847Z,71.96
2022-11-20T01:19:12.897Z,71.02
2022-11-20T01:21:45.645Z,71.55
2022-11-20T01:24:17.299Z,71.08
2022-11-20T01:26:48.375Z,70.15
2022-11-20T01:29:23.341Z,69.76
2022-11-20T01:31:53.705Z,69.72
2022-11-20T01:34:23.716Z,69.94
2022-11-20T01:36:53.960Z,69.19
2022-11-20T01:39:25.344Z,70.13
2022-11-20T01:42:13.307Z,70.02
2022-11-20T01:44:56.676Z,70.71
2022-11-20T01:47:37.026Z,70.78
2022-11-20T01:50:15.765Z,70.67
2022-11-20T01:53:00.786Z,71.00
2022-11-20T01:55:33.699Z,70.92
2022-11-20T01:58:03.020Z,70.79
2022-11-20T02:00:32.109Z,70.62
2022-11-20T02:03:05.019Z,70.96
2022-11-20T02:05:35.850Z,71.76
2022-11-20T02:08:06.823Z,72.14
2022-11-20T02:10:35.790Z,71.70
2022-11-20T02:13:23.836Z,71.75
2022-11-20T02:15:53.079Z,71.83
2022-11-20T02:18:22.284Z,71.70
2022-11-20T02:20:58.958Z,71.58
2022-11-20T02:23:33.049Z,71.32
2022-11-20T02:26:05.551Z,72.22
2022-11-20T02:28:34.361Z,72.04
2022-11-20T02:31:02.629Z,71.95
2022-11-20T02:33:30.550Z,71.18
2022-11-20T02:35:58.791Z,72.07
2022-11-20T02:38:26.751Z,71.43
2022-11-20T02:40:55.795Z,71.25
2022-11-20T02:43:24.813Z,71.23
2022-11-20T02:45:53.006Z,71.17
2022-11-20T02:48:20.780Z,71.49
2022-11-20T02:50:50.130Z,71.26
2022-11-20T02:53:17.872Z,70.88
2022-11-20T02:55:46.040Z,71.34
2022-11-20T02:58:13.869Z,71.45
2022-11-20T03:00:42.082Z,71.82
2022-11-20T03:03:09.923Z,72.13
2022-11-20T03:05:39.430Z,72.14
2022-11-20T03:08:07.391Z,71.94
2022-11-20T03:10:35.621Z,72.72
2022-11-20T03:13:03.499Z,73.20
2022-11-20T03:15:32.061Z,72.22
2022-11-20T03:18:00.030Z,72.14
2022-11-20T03:20:28.259Z,71.88
2022-11-20T03:22:56.661Z,71.88
2022-11-20T03:25:25.077Z,71.81
2022-11-20T03:27:53.040Z,71.28
2022-11-20T03:30:21.260Z,71.56
2022-11-20T03:32:49.660Z,71.38
2022-11-20T03:35:17.793Z,71.37
2022-11-20T03:37:47.102Z,71.08
2022-11-20T03:40:15.389Z,72.01
2022-11-20T03:42:46.170Z,70.87
2022-11-20T03:45:19.152Z,70.80
2022-11-20T03:47:47.830Z,70.08
2022-11-20T03:50:16.272Z,69.02
2022-11-20T03:52:44.182Z,68.41
2022-11-20T03:55:12.483Z,67.61
2022-11-20T03:57:40.348Z,67.46
2022-11-20T04:00:10.492Z,68.40
2022-11-20T04:02:38.320Z,68.17
2022-11-20T04:05:07.050Z,67.89
2022-11-20T04:07:35.892Z,67.82
2022-11-20T04:10:04.539Z,68.49
2022-11-20T04:12:35.912Z,69.16
2022-11-20T04:15:04.400Z,68.90
2022-11-20T04:17:32.220Z,69.24
2022-11-20T04:20:01.072Z,69.56
2022-11-20T04:22:29.013Z,70.88
2022-11-20T04:24:57.221Z,71.44
2022-11-20T04:27:25.101Z,71.28
2022-11-20T04:29:53.241Z,71.65
2022-11-20T04:32:21.069Z,71.74
2022-11-20T04:34:49.461Z,71.01
2022-11-20T04:37:18.179Z,72.33
2022-11-20T04:39:47.029Z,72.57
2022-11-20T04:42:30.140Z,72.88
2022-11-20T04:44:59.735Z,72.70
2022-11-20T04:47:27.640Z,71.95
2022-11-20T04:49:55.884Z,73.01
2022-11-20T04:52:23.804Z,73.77
2022-11-20T04:54:54.012Z,73.92
2022-11-20T04:57:21.942Z,73.17
2022-11-20T04:59:50.088Z,74.25
2022-11-20T05:02:18.021Z,74.51
2022-11-20T05:04:46.399Z,74.68
2022-11-20T05:07:14.443Z,74.76
2022-11-20T05:09:43.150Z,74.38
2022-11-20T05:12:11.326Z,73.88
2022-11-20T05:14:39.489Z,74.43
2022-11-20T05:17:07.621Z,74.79
2022-11-20T05:19:36.831Z,75.21
2022-11-20T05:22:06.655Z,74.80
2022-11-20T05:24:35.970Z,74.76
2022-11-20T05:27:03.859Z,75.08
2022-11-20T05:29:32.144Z,76.91
2022-11-20T05:32:00.036Z,77.49
2022-11-20T05:34:28.180Z,76.94
2022-11-20T05:36:55.992Z,76.63
2022-11-20T05:39:24.266Z,76.37
2022-11-20T05:42:12.429Z,76.03
2022-11-20T05:44:43.129Z,75.85
2022-11-20T05:47:11.750Z,76.83
2022-11-20T05:49:39.969Z,76.85
2022-11-20T05:52:07.831Z,77.06
2022-11-20T05:54:37.298Z,77.22
2022-11-20T05:57:06.200Z,76.76
2022-11-20T05:59:34.341Z,77.14
2022-11-20T06:02:02.190Z,77.44
2022-11-20T06:04:30.402Z,76.81
2022-11-20T06:06:58.238Z,76.45
2022-11-20T06:09:26.440Z,77.10
2022-11-20T06:11:54.395Z,78.13
2022-11-20T06:14:22.540Z,77.79
2022-11-20T06:16:50.993Z,77.11
2022-11-20T06:19:19.299Z,76.02
2022-11-20T06:21:50.723Z,77.21
2022-11-20T06:24:19.290Z,77.43
2022-11-20T06:26:47.190Z,77.51
2022-11-20T06:29:15.429Z,76.72
2022-11-20T06:31:43.792Z,75.74
2022-11-20T06:34:12.110Z,75.58
2022-11-20T06:36:41.058Z,76.25
2022-11-20T06:39:09.572Z,75.46
2022-11-20T06:41:38.453Z,76.12
2022-11-20T06:44:06.984Z,75.70
2022-11-20T06:46:35.112Z,75.36
2022-11-20T06:49:03.953Z,74.70
2022-11-20T06:51:31.942Z,74.15
2022-11-20T06:54:02.184Z,73.22
2022-11-20T06:56:30.382Z,73.21
2022-11-20T06:58:59.913Z,72.68
2022-11-20T07:01:28.038Z,72.95
2022-11-20T07:03:56.573Z,72.56
2022-11-20T07:06:24.583Z,71.58
2022-11-20T07:08:54.067Z,69.94
2022-11-20T07:11:22.148Z,68.98
2022-11-20T07:13:52.396Z,68.53
2022-11-20T07:16:20.405Z,68.12
2022-11-20T07:18:50.701Z,67.82
2022-11-20T07:21:19.133Z,66.25
2022-11-20T07:23:48.008Z,60.92
2022-11-20T07:26:16.034Z,57.82
2022-11-20T07:28:47.166Z,54.62
2022-11-20T07:31:19.059Z,53.79
2022-11-20T07:33:49.594Z,54.02
2022-11-20T07:36:17.602Z,57.60
2022-11-20T07:38:45.996Z,58.65
2022-11-20T07:41:14.025Z,59.35
2022-11-20T07:43:45.967Z,58.95
2022-11-20T07:46:13.939Z,59.38
2022-11-20T07:48:42.374Z,58.82
2022-11-20T07:51:10.510Z,58.20
2022-11-20T07:53:38.843Z,57.85
2022-11-20T07:56:07.501Z,56.61
2022-11-20T07:58:35.852Z,55.54
2022-11-20T08:01:06.431Z,55.05
2022-11-20T08:03:34.923Z,55.53
2022-11-20T08:06:03.824Z,54.76
2022-11-20T08:08:33.816Z,54.07
2022-11-20T08:11:21.847Z,54.25
2022-11-20T08:14:08.606Z,53.56
2022-11-20T08:16:36.768Z,53.42
2022-11-20T08:19:05.814Z,53.69
2022-11-20T08:21:38.157Z,52.10
2022-11-20T08:24:09.142Z,51.21
2022-11-20T08:26:39.573Z,50.79
2022-11-20T08:29:08.795Z,50.98
2022-11-20T08:31:37.188Z,51.10
2022-11-20T08:34:25.543Z,50.05
2022-11-20T08:36:53.603Z,50.18
2022-11-20T08:39:22.322Z,49.08
2022-11-20T08:41:50.582Z,49.41
2022-11-20T08:44:18.892Z,48.44
2022-11-20T08:46:48.303Z,47.92
2022-11-20T08:49:17.855Z,46.95
2022-11-20T08:51:46.511Z,47.25
2022-11-20T08:54:15.006Z,47.33
2022-11-20T08:56:43.163Z,46.37
2022-11-20T08:59:36.794Z,46.12
2022-11-20T09:01:59.782Z,45.37
2022-11-20T09:04:28.192Z,44.06
2022-11-20T09:06:56.304Z,43.43
2022-11-20T09:09:25.126Z,43.30
2022-11-20T09:11:54.283Z,43.61
2022-11-20T09:14:22.804Z,43.49
2022-11-20T09:16:50.933Z,43.02
2022-11-20T09:19:34.994Z,42.40
2022-11-20T09:22:04.536Z,42.49
2022-11-20T09:24:33.054Z,42.52
2022-11-20T09:27:04.163Z,42.78
2022-11-20T09:29:32.853Z,40.26
2022-11-20T09:32:00.973Z,38.69
2022-11-20T09:34:29.378Z,37.86
2022-11-20T09:36:58.499Z,37.80
2022-11-20T09:39:28.591Z,38.11
2022-11-20T09:42:18.790Z,38.66
2022-11-20T09:45:00.035Z,38.30
2022-11-20T09:47:43.344Z,37.62
2022-11-20T09:50:51.347Z,40.15
2022-11-20T09:53:38.576Z,39.62
2022-11-20T09:56:12.393Z,40.42
2022-11-20T09:58:53.012Z,40.00
2022-11-20T10:01:31.647Z,39.77
2022-11-20T10:04:15.335Z,42.82
2022-11-20T10:07:30.668Z,42.66
2022-11-20T10:09:56.363Z,43.16
2022-11-20T10:12:50.335Z,43.73
2022-11-20T10:15:29.827Z,43.00
2022-11-20T10:18:12.143Z,43.39
2022-11-20T10:21:05.653Z,44.66
2022-11-20T10:24:04.253Z,44.16
2022-11-20T10:26:59.703Z,43.59
2022-11-20T10:29:35.602Z,42.32
2022-11-20T10:32:12.630Z,43.00
2022-11-20T10:34:59.992Z,42.19
2022-11-20T10:37:30.339Z,41.94
2022-11-20T10:40:26.042Z,41.29
2022-11-20T10:43:01.294Z,41.45
2022-11-20T10:45:41.582Z,40.26
2022-11-20T10:48:16.994Z,40.50
2022-11-20T10:51:01.080Z,40.82
2022-11-20T10:53:52.369Z,42.03
2022-11-20T10:56:26.738Z,40.92
2022-11-20T10:59:27.048Z,41.88
2022-11-20T11:01:55.230Z,43.14
2022-11-20T11:04:42.328Z,43.18
2022-11-20T11:07:32.390Z,43.86
2022-11-20T11:10:01.140Z,44.22
2022-11-20T11:12:30.183Z,44.48
2022-11-20T11:14:58.985Z,43.36
2022-11-20T11:17:30.579Z,42.64
2022-11-20T11:20:17.429Z,41.94
2022-11-20T11:22:50.573Z,40.36
2022-11-20T11:25:53.120Z,41.29
2022-11-20T11:28:26.809Z,42.41
2022-11-20T11:30:55.703Z,44.02
2022-11-20T11:33:27.655Z,44.45
2022-11-20T11:35:58.542Z,42.76
2022-11-20T11:38:41.959Z,40.03
2022-11-20T11:41:27.630Z,43.13
2022-11-20T11:44:36.761Z,43.70
2022-11-20T11:47:07.630Z,45.55
2022-11-20T11:49:36.480Z,44.08
2022-11-20T11:52:18.481Z,46.08
2022-11-20T11:55:01.049Z,47.75
2022-11-20T11:57:42.379Z,48.29
2022-11-20T12:00:15.001Z,48.28
2022-11-20T12:02:45.923Z,46.90
2022-11-20T12:05:27.440Z,45.55
2022-11-20T12:08:14.052Z,46.19
2022-11-20T12:10:48.141Z,47.45
2022-11-20T12:13:31.889Z,47.08
2022-11-20T12:16:02.050Z,46.72
2022-11-20T12:18:30.521Z,48.44
2022-11-20T12:21:24.341Z,46.29
2022-11-20T12:24:03.984Z,48.36
2022-11-20T12:26:50.641Z,48.78
2022-11-20T12:29:21.485Z,47.12
2022-11-20T12:32:19.850Z,47.75
2022-11-20T12:35:11.765Z,48.04
2022-11-20T12:37:46.078Z,46.63
2022-11-20T12:40:34.071Z,47.29
2022-11-20T12:43:41.650Z,45.58
2022-11-20T12:46:12.520Z,44.69
2022-11-20T12:48:56.050Z,47.22
2022-11-20T12:51:43.262Z,44.81
2022-11-20T12:54:32.633Z,45.31
2022-11-20T12:57:27.673Z,43.96
2022-11-20T13:00:08.486Z,43.40
2022-11-20T13:03:00.364Z,43.00
2022-11-20T13:05:47.376Z,43.07
2022-11-20T13:08:29.904Z,43.55
2022-11-20T13:10:58.063Z,43.82
2022-11-20T13:13:57.883Z,44.76
2022-11-20T13:16:39.874Z,44.25
2022-11-20T13:19:13.554Z,43.24
2022-11-20T13:21:52.815Z,41.32
2022-11-20T13:24:20.884Z,39.79
2022-11-20T13:27:00.603Z,39.98
2022-11-20T13:29:28.732Z,42.94
2022-11-20T13:32:23.232Z,42.53
2022-11-20T13:34:58.082Z,42.70
2022-11-20T13:37:30.031Z,43.35
2022-11-20T13:40:10.863Z,41.41
2022-11-20T13:42:52.323Z,41.16
2022-11-20T13:45:27.646Z,42.76
2022-11-20T13:47:58.913Z,41.10
2022-11-20T13:50:39.321Z,38.59
2022-11-20T13:53:32.514Z,37.47
2022-11-20T13:56:43.521Z,41.31
2022-11-20T13:59:41.699Z,42.68
2022-11-20T14:02:19.344Z,40.71
2022-11-20T14:04:51.005Z,39.20
2022-11-20T14:07:21.753Z,38.31
2022-11-20T14:09:56.017Z,37.38
2022-11-20T14:12:33.120Z,34.26
2022-11-20T14:15:01.289Z,33.71
2022-11-20T14:17:36.722Z,33.72
2022-11-20T14:20:13.847Z,35.18
2022-11-20T14:22:52.772Z,33.68
2022-11-20T14:25:26.113Z,31.47
2022-11-20T14:27:55.413Z,32.74
2022-11-20T14:30:30.543Z,32.62
2022-11-20T14:33:03.841Z,33.72
2022-11-20T14:35:35.531Z,34.08
2022-11-20T14:38:05.603Z,34.33
2022-11-20T14:40:37.903Z,35.27
2022-11-20T14:43:23.412Z,34.19
2022-11-20T14:46:01.712Z,32.03
2022-11-20T14:48:42.177Z,34.46
2022-11-20T14:51:29.539Z,32.62
2022-11-20T14:53:57.516Z,34.46
2022-11-20T14:56:26.352Z,35.36
2022-11-20T14:58:59.303Z,38.50
2022-11-20T15:01:28.913Z,36.47
2022-11-20T15:04:09.012Z,37.74
2022-11-20T15:06:39.686Z,42.19
2022-11-20T15:09:15.362Z,45.22
2022-11-20T15:12:04.402Z,47.29
2022-11-20T15:14:33.861Z,49.34
2022-11-20T15:17:02.886Z,50.53
2022-11-20T15:19:30.802Z,50.14
2022-11-20T15:22:00.274Z,51.43
2022-11-20T15:24:28.245Z,52.22
2022-11-20T15:26:56.447Z,52.29
2022-11-20T15:29:25.101Z,53.91
2022-11-20T15:31:55.496Z,53.43
2022-11-20T15:34:23.764Z,54.74
2022-11-20T15:36:52.623Z,53.67
2022-11-20T15:39:20.487Z,54.10
2022-11-20T15:41:48.701Z,55.44
2022-11-20T15:44:16.501Z,55.20
2022-11-20T15:46:46.388Z,55.86
2022-11-20T15:49:19.938Z,57.19
2022-11-20T15:51:50.947Z,57.65
2022-11-20T15:54:24.230Z,58.09
2022-11-20T15:56:55.427Z,57.45
2022-11-20T15:59:23.325Z,57.11
2022-11-20T16:01:51.601Z,57.72
2022-11-20T16:04:19.784Z,58.56
2022-11-20T16:06:48.031Z,58.13
2022-11-20T16:09:15.895Z,58.89
2022-11-20T16:11:44.346Z,57.98
2022-11-20T16:14:31.115Z,58.33
2022-11-20T16:16:59.323Z,58.68
2022-11-20T16:19:27.185Z,58.44
2022-11-20T16:22:01.164Z,59.06
2022-11-20T16:24:31.460Z,59.14
2022-11-20T16:27:00.276Z,59.78
2022-11-20T16:29:28.683Z,60.32
2022-11-20T16:31:58.165Z,60.56
2022-11-20T16:34:26.165Z,61.00
2022-11-20T16:36:54.625Z,61.42
2022-11-20T16:39:24.100Z,61.49
2022-11-20T16:41:52.574Z,61.87
2022-11-20T16:44:21.912Z,61.65
2022-11-20T16:46:50.617Z,62.12
2022-11-20T16:49:18.634Z,62.16
2022-11-20T16:51:47.246Z,62.24
2022-11-20T16:54:20.546Z,62.73
2022-11-20T16:56:51.199Z,62.68
2022-11-20T16:59:19.400Z,62.54
2022-11-20T17:01:47.743Z,62.16
2022-11-20T17:04:16.238Z,63.50
2022-11-20T17:06:45.245Z,63.57
2022-11-20T17:09:14.016Z,64.19
2022-11-20T17:11:43.531Z,63.89
2022-11-20T17:14:12.324Z,64.34
2022-11-20T17:16:40.805Z,64.36
2022-11-20T17:19:09.982Z,64.96
2022-11-20T17:21:41.376Z,65.08
2022-11-20T17:24:12.134Z,65.60
2022-11-20T17:26:42.378Z,65.53
2022-11-20T17:29:18.766Z,65.44
2022-11-20T17:31:47.655Z,66.19
2022-11-20T17:34:16.573Z,65.96
2022-11-20T17:36:46.035Z,66.05
2022-11-20T17:39:15.969Z,66.84
2022-11-20T17:41:44.758Z,66.58
2022-11-20T17:44:13.465Z,67.56
2022-11-20T17:46:42.840Z,67.24
2022-11-20T17:49:10.738Z,66.94
2022-11-20T17:51:39.031Z,66.53
2022-11-20T17:54:09.602Z,66.53
2022-11-20T17:56:56.478Z,67.34
2022-11-20T17:59:24.445Z,67.14
2022-11-20T18:01:52.916Z,67.81
2022-11-20T18:04:21.445Z,67.70
2022-11-20T18:06:51.411Z,66.85
2022-11-20T18:09:19.526Z,67.25
2022-11-20T18:11:47.816Z,67.50
2022-11-20T18:14:26.752Z,67.02
2022-11-20T18:17:01.481Z,67.35
2022-11-20T18:19:33.171Z,67.42
2022-11-20T18:22:04.327Z,66.73
2022-11-20T18:24:33.159Z,67.65
2022-11-20T18:27:01.431Z,68.20
2022-11-20T18:29:31.478Z,68.53
2022-11-20T18:32:00.806Z,68.12
2022-11-20T18:34:29.637Z,68.88
2022-11-20T18:36:59.196Z,69.33
2022-11-20T18:39:27.095Z,69.55
2022-11-20T18:42:14.527Z,70.08
2022-11-20T18:44:51.728Z,70.52
2022-11-20T18:47:32.735Z,70.42
2022-11-20T18:50:02.365Z,70.39
2022-11-20T18:52:35.678Z,70.39
2022-11-20T18:55:05.332Z,70.10
2022-11-20T18:57:34.747Z,70.12
2022-11-20T19:00:08.404Z,70.79
2022-11-20T19:02:42.303Z,71.17
2022-11-20T19:05:14.996Z,71.81
2022-11-20T19:07:43.386Z,71.58
2022-11-20T19:10:11.389Z,72.21
2022-11-20T19:12:39.584Z,71.75
2022-11-20T19:15:07.792Z,72.34
2022-11-20T19:17:36.030Z,72.17
2022-11-20T19:20:04.087Z,72.25
2022-11-20T19:22:32.247Z,72.19
2022-11-20T19:25:00.179Z,72.97
2022-11-20T19:27:28.391Z,72.63
2022-11-20T19:30:03.574Z,72.95
2022-11-20T19:32:33.216Z,72.33
2022-11-20T19:35:01.065Z,72.67
2022-11-20T19:37:29.340Z,72.38
2022-11-20T19:39:59.948Z,72.77
2022-11-20T19:42:28.118Z,72.24
2022-11-20T19:44:56.265Z,72.78
2022-11-20T19:47:35.397Z,72.50
2022-11-20T19:50:13.404Z,72.69
2022-11-20T19:52:42.206Z,72.57
2022-11-20T19:55:11.348Z,73.37
2022-11-20T19:57:39.597Z,73.44
2022-11-20T20:00:08.404Z,73.74
2022-11-20T20:02:37.955Z,74.10
2022-11-20T20:05:06.347Z,73.61
2022-11-20T20:07:34.721Z,74.42
2022-11-20T20:10:02.566Z,74.10
2022-11-20T20:12:31.791Z,74.01
2022-11-20T20:14:59.716Z,73.84
2022-11-20T20:17:28.992Z,74.03
2022-11-20T20:19:57.020Z,74.44
2022-11-20T20:22:25.269Z,74.53
2022-11-20T20:24:53.383Z,73.38
2022-11-20T20:27:22.116Z,74.49
2022-11-20T20:29:52.541Z,75.19
2022-11-20T20:32:21.867Z,76.14
2022-11-20T20:34:49.844Z,75.38
2022-11-20T20:37:18.042Z,75.55
2022-11-20T20:39:46.358Z,75.97
2022-11-20T20:42:14.698Z,75.52
2022-11-20T20:45:02.266Z,74.98
2022-11-20T20:47:41.434Z,74.10
2022-11-20T20:50:12.052Z,75.03
2022-11-20T20:52:40.876Z,75.37
2022-11-20T20:55:11.578Z,74.82
2022-11-20T20:57:43.151Z,75.14
2022-11-20T21:00:11.504Z,75.32
2022-11-20T21:02:39.753Z,74.73
2022-11-20T21:05:08.752Z,74.93
2022-11-20T21:07:59.346Z,74.57
2022-11-20T21:10:32.235Z,73.90
2022-11-20T21:13:02.474Z,74.21
2022-11-20T21:15:30.377Z,74.80
2022-11-20T21:17:58.586Z,75.16
2022-11-20T21:20:46.236Z,75.05
2022-11-20T21:23:15.616Z,75.60
2022-11-20T21:25:43.694Z,76.11
2022-11-20T21:28:15.625Z,75.77
2022-11-20T21:30:47.005Z,75.77
2022-11-20T21:33:15.282Z,75.28
2022-11-20T21:35:43.181Z,75.32
2022-11-20T21:38:11.423Z,75.66
2022-11-20T21:40:39.305Z,75.60
2022-11-20T21:43:08.305Z,74.77
2022-11-20T21:45:36.187Z,74.84
2022-11-20T21:48:04.734Z,75.38
2022-11-20T21:50:35.395Z,75.75
2022-11-20T21:53:03.648Z,75.62
2022-11-20T21:55:31.490Z,75.45
2022-11-20T21:57:59.895Z,74.98
2022-11-20T22:00:27.705Z,75.71
2022-11-20T22:02:55.967Z,75.03
2022-11-20T22:05:23.815Z,75.32
2022-11-20T22:07:53.144Z,76.21
2022-11-20T22:10:21.013Z,76.04
2022-11-20T22:12:49.235Z,75.76
2022-11-20T22:15:33.057Z,76.13
2022-11-20T22:18:14.165Z,75.21
2022-11-20T22:20:42.380Z,75.18
2022-11-20T22:23:11.729Z,75.90
2022-11-20T22:25:39.700Z,75.94
2022-11-20T22:28:07.845Z,76.20
2022-11-20T22:30:35.646Z,75.65
2022-11-20T22:33:06.716Z,75.68
2022-11-20T22:35:38.469Z,74.38
2022-11-20T22:38:08.200Z,74.60
2022-11-20T22:40:36.210Z,74.40
2022-11-20T22:43:04.538Z,74.79
2022-11-20T22:45:32.707Z,74.29
2022-11-20T22:48:01.028Z,73.88
2022-11-20T22:50:29.755Z,73.94
2022-11-20T22:52:58.239Z,74.10
2022-11-20T22:55:26.237Z,72.98
2022-11-20T22:57:54.538Z,73.61
2022-11-20T23:00:22.683Z,73.69
2022-11-20T23:02:51.058Z,73.05
2022-11-20T23:05:19.028Z,72.83
2022-11-20T23:07:47.402Z,73.84
2022-11-20T23:10:15.475Z,73.22
2022-11-20T23:12:43.859Z,72.91
2022-11-20T23:15:11.937Z,72.88
2022-11-20T23:17:40.209Z,73.68
2022-11-20T23:20:10.210Z,73.80
2022-11-20T23:22:39.658Z,74.08
2022-11-20T23:25:08.422Z,73.58
2022-11-20T23:27:38.087Z,73.65
2022-11-20T23:30:06.760Z,73.03
2022-11-20T23:32:36.351Z,72.76
2022-11-20T23:35:04.447Z,73.71
2022-11-20T23:37:32.806Z,73.94
2022-11-20T23:40:00.728Z,73.54
2022-11-20T23:42:29.045Z,72.78
2022-11-20T23:44:57.097Z,73.31
2022-11-20T23:47:24.900Z,73.59
2022-11-20T23:49:53.763Z,72.96
2022-11-20T23:52:23.339Z,71.88
2022-11-20T23:54:53.009Z,73.39
2022-11-20T23:57:20.988Z,73.02
2022-11-20T23:59:50.549Z,73.86
